Time;durP1;ratioP1;P1;durP2;ratioP2;P2;SDS_P1;SDS_P2;PMS_P1;PMS_P2;Temp;Humidity;BMP_temperature;BMP_pressure;BME280_temperature;BME280_humidity;BME280_pressure;Samples;Min_cycle;Max_cycle;Signal;HPM_P1;HPM_P2
2024/02/14 00:01:36;;;;;;;6.70;4.93;;;9.60;99.90;;;;;;5076620;28;20187;-83
2024/02/14 00:04:03;;;;;;;8.57;5.10;;;9.70;99.90;;;;;;5076719;28;20186;-89
2024/02/14 00:06:28;;;;;;;7.17;4.80;;;9.60;99.90;;;;;;5094979;28;20175;-83
2024/02/14 00:08:54;;;;;;;9.57;5.00;;;9.60;99.90;;;;;;5076809;28;20175;-84
2024/02/14 00:11:20;;;;;;;5.93;4.10;;;9.70;99.90;;;;;;5076578;28;20168;-83
2024/02/14 00:13:45;;;;;;;5.90;4.50;;;9.80;99.90;;;;;;5076400;28;20200;-84
2024/02/14 00:16:11;;;;;;;8.17;5.00;;;9.80;99.90;;;;;;5094669;28;20179;-89
2024/02/14 00:18:37;;;;;;;9.30;4.83;;;9.70;99.90;;;;;;5076902;28;20175;-84
2024/02/14 00:21:03;;;;;;;6.77;4.23;;;9.80;99.90;;;;;;5076109;28;20635;-86
2024/02/14 00:23:28;;;;;;;7.20;4.57;;;9.70;99.90;;;;;;5076411;28;20657;-86
2024/02/14 00:25:54;;;;;;;5.90;4.20;;;9.80;99.90;;;;;;5076337;28;20168;-83
2024/02/14 00:28:20;;;;;;;7.20;4.53;;;9.70;99.90;;;;;;5076373;28;20175;-83
2024/02/14 00:30:45;;;;;;;7.93;4.20;;;9.80;99.90;;;;;;5076358;28;20654;-84
2024/02/14 00:33:11;;;;;;;7.90;4.47;;;9.90;99.90;;;;;;5076378;28;20218;-84
2024/02/14 00:35:37;;;;;;;6.70;4.30;;;9.90;99.90;;;;;;5076042;28;20213;-85
2024/02/14 00:38:02;;;;;;;6.87;4.30;;;10.00;99.90;;;;;;5076341;28;20580;-83
2024/02/14 00:40:28;;;;;;;7.77;4.57;;;9.90;99.90;;;;;;5076162;28;20175;-83
2024/02/14 00:42:53;;;;;;;8.50;4.17;;;9.90;99.90;;;;;;5075956;28;20235;-84
2024/02/14 00:45:19;;;;;;;6.13;4.13;;;10.00;99.90;;;;;;5075754;28;20531;-83
2024/02/14 00:47:45;;;;;;;5.90;4.17;;;10.00;99.90;;;;;;5076125;28;20179;-84
2024/02/14 00:50:13;;;;;;;5.53;4.27;;;10.10;99.90;;;;;;5075738;28;20184;-84
2024/02/14 00:52:39;;;;;;;6.27;4.07;;;10.00;99.90;;;;;;5075961;28;20722;-84
2024/02/14 00:55:05;;;;;;;7.97;5.00;;;10.00;99.90;;;;;;5075392;28;20306;-86
2024/02/14 00:57:31;;;;;;;6.97;4.40;;;10.00;99.90;;;;;;5074605;28;20175;-84
2024/02/14 00:59:57;;;;;;;6.60;4.00;;;10.00;99.90;;;;;;5075666;28;20194;-82
2024/02/14 01:02:23;;;;;;;9.63;5.07;;;10.00;99.90;;;;;;5075616;28;20209;-88
2024/02/14 01:04:49;;;;;;;7.37;4.33;;;10.20;99.90;;;;;;5093841;28;20211;-86
2024/02/14 01:07:15;;;;;;;7.17;4.60;;;10.10;99.90;;;;;;5075752;28;20172;-84
2024/02/14 01:09:40;;;;;;;10.23;4.70;;;10.00;99.90;;;;;;5075525;28;20639;-87
2024/02/14 01:12:06;;;;;;;6.20;4.07;;;10.20;99.90;;;;;;5075317;28;20584;-84
2024/02/14 01:14:32;;;;;;;6.80;4.03;;;10.10;99.90;;;;;;5077621;28;20212;-84
2024/02/14 01:16:58;;;;;;;7.07;4.63;;;10.20;99.90;;;;;;5076371;28;20190;-90
2024/02/14 01:19:25;;;;;;;7.40;4.20;;;10.10;99.90;;;;;;5075360;28;20176;-84
2024/02/14 01:21:51;;;;;;;7.43;4.50;;;10.00;99.90;;;;;;5075332;28;20232;-84
2024/02/14 01:24:17;;;;;;;7.47;4.87;;;10.10;99.90;;;;;;5075284;28;20171;-85
2024/02/14 01:26:42;;;;;;;8.10;4.73;;;10.00;99.90;;;;;;5075087;28;20175;-83
2024/02/14 01:29:09;;;;;;;9.50;4.60;;;10.00;99.90;;;;;;5075392;28;20229;-84
2024/02/14 01:31:35;;;;;;;7.10;4.77;;;10.00;99.90;;;;;;5075234;28;20230;-84
2024/02/14 01:34:03;;;;;;;10.20;4.87;;;9.90;99.90;;;;;;5075093;28;20286;-85
2024/02/14 01:36:29;;;;;;;7.47;4.37;;;9.90;99.90;;;;;;5075199;28;20545;-84
2024/02/14 01:38:55;;;;;;;9.03;5.40;;;9.90;99.90;;;;;;5075171;28;20172;-83
2024/02/14 01:41:21;;;;;;;9.63;4.90;;;10.00;99.90;;;;;;5074827;28;20171;-83
2024/02/14 01:43:47;;;;;;;9.93;5.97;;;10.00;99.90;;;;;;5076813;28;20175;-84
2024/02/14 01:46:13;;;;;;;8.87;4.93;;;10.00;99.90;;;;;;5076979;28;20532;-84
2024/02/14 01:48:41;;;;;;;13.47;6.93;;;9.90;99.90;;;;;;5075048;28;20168;-84
2024/02/14 01:51:10;;;;;;;10.90;6.00;;;10.00;99.90;;;;;;5075283;28;20237;-86
2024/02/14 01:53:37;;;;;;;10.03;6.17;;;10.10;99.90;;;;;;5074676;28;20263;-84
2024/02/14 01:56:04;;;;;;;12.13;6.53;;;10.10;99.90;;;;;;5074800;28;20212;-84
2024/02/14 01:58:30;;;;;;;11.17;6.00;;;10.00;99.90;;;;;;5074724;28;20203;-84
2024/02/14 02:00:58;;;;;;;9.87;6.43;;;10.00;99.90;;;;;;5075059;28;20199;-83
2024/02/14 02:03:25;;;;;;;9.30;5.80;;;10.00;99.90;;;;;;5074739;28;20171;-83
2024/02/14 02:05:51;;;;;;;10.43;6.50;;;10.00;99.90;;;;;;5074739;28;20176;-83
2024/02/14 02:08:17;;;;;;;10.77;6.37;;;10.10;99.90;;;;;;5074890;28;20176;-84
2024/02/14 02:10:43;;;;;;;10.07;5.97;;;10.00;99.90;;;;;;5078893;28;20168;-84
2024/02/14 02:13:09;;;;;;;11.43;6.17;;;10.00;99.90;;;;;;5079117;28;20168;-88
2024/02/14 02:15:35;;;;;;;11.70;6.17;;;9.90;99.90;;;;;;5078601;28;20211;-84
2024/02/14 02:18:05;;;;;;;10.87;6.30;;;10.00;99.90;;;;;;5078720;28;20217;-84
2024/02/14 02:20:32;;;;;;;11.30;6.23;;;9.90;99.90;;;;;;5079022;28;20175;-84
2024/02/14 02:22:59;;;;;;;10.37;6.20;;;9.80;99.90;;;;;;5078709;28;20218;-83
2024/02/14 02:25:26;;;;;;;11.03;6.70;;;9.90;99.90;;;;;;5096490;28;20229;-83
2024/02/14 02:27:53;;;;;;;10.83;6.57;;;10.00;99.90;;;;;;5078837;28;20168;-83
2024/02/14 02:30:19;;;;;;;11.33;6.70;;;9.90;99.90;;;;;;5078645;28;20186;-84
2024/02/14 02:32:44;;;;;;;9.07;6.30;;;10.00;99.90;;;;;;5078622;28;20168;-83
2024/02/14 02:35:10;;;;;;;11.67;6.80;;;10.00;99.90;;;;;;5078585;28;20694;-83
2024/02/14 02:37:36;;;;;;;8.30;6.60;;;10.10;99.90;;;;;;5078675;28;20175;-84
2024/02/14 02:40:01;;;;;;;10.50;6.97;;;10.10;99.90;;;;;;5078749;28;20176;-84
2024/02/14 02:42:29;;;;;;;11.20;6.77;;;10.10;99.90;;;;;;5078493;28;20179;-85
2024/02/14 02:44:54;;;;;;;11.10;7.30;;;10.20;99.90;;;;;;5078337;28;20562;-84
2024/02/14 02:47:20;;;;;;;12.67;7.43;;;10.10;99.90;;;;;;5096843;28;20180;-84
2024/02/14 02:49:46;;;;;;;10.30;6.27;;;10.10;99.90;;;;;;5078822;28;20175;-83
2024/02/14 02:52:12;;;;;;;10.00;6.37;;;10.10;99.90;;;;;;5078799;28;20632;-84
2024/02/14 02:54:43;;;;;;;14.20;7.37;;;10.10;99.90;;;;;;5077841;28;20671;-83
2024/02/14 02:57:12;;;;;;;11.40;6.80;;;10.20;99.90;;;;;;5078345;28;20164;-91
2024/02/14 02:59:42;;;;;;;11.67;6.93;;;10.30;99.90;;;;;;5077984;28;20664;-84
2024/02/14 03:02:08;;;;;;;10.67;7.17;;;10.30;99.90;;;;;;5096283;28;20655;-84
2024/02/14 03:04:34;;;;;;;11.47;6.73;;;10.20;99.90;;;;;;5077997;28;20188;-83
2024/02/14 03:07:07;;;;;;;12.93;7.90;;;10.30;99.90;;;;;;5078182;28;20172;-84
2024/02/14 03:09:33;;;;;;;13.97;7.67;;;10.50;99.90;;;;;;5077385;28;20172;-83
2024/02/14 03:11:58;;;;;;;12.83;8.00;;;10.30;99.90;;;;;;5078220;28;20176;-83
2024/02/14 03:14:24;;;;;;;13.07;7.60;;;10.40;99.90;;;;;;5077558;28;20212;-83
2024/02/14 03:16:50;;;;;;;13.00;8.00;;;10.40;99.90;;;;;;5096101;28;20745;-83
2024/02/14 03:19:16;;;;;;;13.77;7.13;;;10.40;99.90;;;;;;5095964;28;20172;-83
2024/02/14 03:21:43;;;;;;;12.63;7.50;;;10.50;99.90;;;;;;5076566;28;20638;-84
2024/02/14 03:24:09;;;;;;;13.27;8.17;;;10.50;99.90;;;;;;5077716;28;20183;-85
2024/02/14 03:26:35;;;;;;;13.67;7.60;;;10.70;99.90;;;;;;5077648;28;20265;-85
2024/02/14 03:29:02;;;;;;;13.20;7.77;;;10.50;99.90;;;;;;5077574;28;20608;-84
2024/02/14 03:31:27;;;;;;;11.00;7.40;;;10.60;99.90;;;;;;5077575;28;20183;-89
2024/02/14 03:33:53;;;;;;;12.77;7.40;;;10.50;99.90;;;;;;5095595;28;20204;-84
2024/02/14 03:36:19;;;;;;;11.30;7.47;;;10.70;99.90;;;;;;5077577;28;20363;-84
2024/02/14 03:38:46;;;;;;;11.80;6.83;;;10.50;99.90;;;;;;5077685;28;20718;-84
2024/02/14 03:41:13;;;;;;;13.90;7.67;;;10.50;99.90;;;;;;5078259;28;20645;-84
2024/02/14 03:43:38;;;;;;;12.47;7.40;;;10.60;99.90;;;;;;5078671;28;20176;-83
2024/02/14 03:46:05;;;;;;;12.20;7.70;;;10.60;99.90;;;;;;5078733;28;20182;-85
2024/02/14 03:48:31;;;;;;;12.57;7.37;;;10.60;99.90;;;;;;5078033;28;20204;-89
2024/02/14 03:50:57;;;;;;;12.87;8.03;;;10.60;99.90;;;;;;5077876;28;20179;-85
2024/02/14 03:53:23;;;;;;;12.87;8.10;;;10.60;99.90;;;;;;5096236;28;20164;-86
2024/02/14 03:55:49;;;;;;;13.90;7.83;;;10.60;99.90;;;;;;5079243;28;20200;-84
2024/02/14 03:58:22;;;;;;;14.27;8.07;;;10.40;99.90;;;;;;5076990;28;20567;-84
2024/02/14 04:00:50;;;;;;;13.43;8.30;;;10.40;99.90;;;;;;5076666;28;20611;-83
2024/02/14 04:03:16;;;;;;;15.03;8.57;;;10.40;99.90;;;;;;5077030;28;20225;-89
2024/02/14 04:05:42;;;;;;;16.03;8.67;;;10.40;99.90;;;;;;5076333;28;20168;-85
2024/02/14 04:08:09;;;;;;;13.77;8.80;;;10.40;99.90;;;;;;5076972;28;20539;-83
2024/02/14 04:10:39;;;;;;;18.13;9.40;;;10.50;99.90;;;;;;5076713;28;20164;-88
2024/02/14 04:13:05;;;;;;;14.73;9.53;;;10.50;99.90;;;;;;5076769;28;20188;-85
2024/02/14 04:15:34;;;;;;;15.10;8.93;;;10.50;99.90;;;;;;5076174;28;20615;-84
2024/02/14 04:18:02;;;;;;;13.07;8.60;;;10.60;99.90;;;;;;5076640;28;20255;-83
2024/02/14 04:20:28;;;;;;;15.37;9.63;;;10.60;99.90;;;;;;5076284;28;20544;-83
2024/02/14 04:22:53;;;;;;;13.43;9.27;;;10.40;99.90;;;;;;5076443;28;20171;-85
2024/02/14 04:25:19;;;;;;;13.87;8.57;;;10.40;99.90;;;;;;5076172;28;20649;-84
2024/02/14 04:27:44;;;;;;;16.77;9.30;;;10.40;99.90;;;;;;5076236;28;20176;-85
2024/02/14 04:30:11;;;;;;;15.80;9.40;;;10.40;99.90;;;;;;5076405;28;20570;-89
2024/02/14 04:32:37;;;;;;;16.57;10.17;;;10.40;99.90;;;;;;5076323;28;20173;-82
2024/02/14 04:35:03;;;;;;;13.97;9.17;;;10.40;99.90;;;;;;5075800;28;20203;-84
2024/02/14 04:37:29;;;;;;;15.00;10.23;;;10.40;99.90;;;;;;5076200;28;20164;-84
2024/02/14 04:39:55;;;;;;;14.83;9.53;;;10.40;99.90;;;;;;5076023;28;20183;-84
2024/02/14 04:42:20;;;;;;;15.03;9.70;;;10.40;99.90;;;;;;5076213;28;20188;-88
2024/02/14 04:44:46;;;;;;;16.90;10.47;;;10.50;99.90;;;;;;5094172;28;20238;-84
2024/02/14 04:47:11;;;;;;;15.63;9.83;;;10.50;99.90;;;;;;5076007;28;20182;-83
2024/02/14 04:49:37;;;;;;;13.80;9.67;;;10.50;99.90;;;;;;5075727;28;20615;-85
2024/02/14 04:52:04;;;;;;;16.33;11.37;;;10.50;99.90;;;;;;5075812;28;20263;-84
2024/02/14 04:54:30;;;;;;;17.27;12.23;;;10.50;99.90;;;;;;5075853;28;20207;-84
2024/02/14 04:56:55;;;;;;;17.67;9.90;;;10.50;99.90;;;;;;5075822;28;20174;-85
2024/02/14 04:59:21;;;;;;;14.03;9.80;;;10.50;99.90;;;;;;5075817;28;20198;-85
2024/02/14 05:01:47;;;;;;;17.77;11.70;;;10.70;99.90;;;;;;5075652;28;20199;-84
2024/02/14 05:04:12;;;;;;;17.03;10.87;;;10.50;99.90;;;;;;5075536;28;20207;-88
2024/02/14 05:06:39;;;;;;;17.90;12.00;;;10.60;99.90;;;;;;5075681;28;20528;-84
2024/02/14 05:09:05;;;;;;;21.00;12.20;;;10.50;99.90;;;;;;5093935;28;20196;-86
2024/02/14 05:11:31;;;;;;;15.40;10.50;;;10.60;99.90;;;;;;5075770;28;20233;-84
2024/02/14 05:13:56;;;;;;;17.33;10.67;;;10.70;99.90;;;;;;5084864;28;20192;-83
2024/02/14 05:16:23;;;;;;;13.60;9.70;;;10.70;99.90;;;;;;5080148;28;20327;-89
2024/02/14 05:18:49;;;;;;;15.73;9.97;;;10.60;99.90;;;;;;5075387;28;20177;-87
2024/02/14 05:21:14;;;;;;;11.80;9.50;;;10.60;99.90;;;;;;5075668;28;20192;-84
2024/02/14 05:23:40;;;;;;;15.70;10.83;;;10.70;99.90;;;;;;5075378;28;20174;-85
2024/02/14 05:26:06;;;;;;;16.10;10.43;;;10.60;99.90;;;;;;5075410;28;20180;-83
2024/02/14 05:28:32;;;;;;;16.07;10.33;;;10.60;99.90;;;;;;5075171;28;20184;-84
2024/02/14 05:31:00;;;;;;;18.57;10.83;;;10.70;99.90;;;;;;5075129;28;20181;-84
2024/02/14 05:33:26;;;;;;;14.87;9.90;;;10.70;99.90;;;;;;5075154;28;20753;-83
2024/02/14 05:35:52;;;;;;;16.50;10.17;;;10.60;99.90;;;;;;5075115;28;20295;-85
2024/02/14 05:38:21;;;;;;;14.07;9.97;;;10.70;99.90;;;;;;5075009;28;20630;-83
2024/02/14 05:40:47;;;;;;;16.47;10.20;;;10.70;99.90;;;;;;5075232;28;20270;-85
2024/02/14 05:43:13;;;;;;;17.13;10.37;;;10.80;99.90;;;;;;5074647;28;20179;-83
2024/02/14 05:45:39;;;;;;;18.23;10.63;;;10.60;99.90;;;;;;5074722;28;20642;-86
2024/02/14 05:48:06;;;;;;;14.70;9.17;;;10.60;99.90;;;;;;5074481;28;20172;-85
2024/02/14 05:50:32;;;;;;;16.87;10.77;;;10.60;99.90;;;;;;5075307;28;20258;-85
2024/02/14 05:52:58;;;;;;;14.70;10.33;;;10.80;99.90;;;;;;5074852;28;20259;-85
2024/02/14 05:55:24;;;;;;;17.90;10.30;;;10.80;99.90;;;;;;5074956;28;20209;-87
2024/02/14 05:57:52;;;;;;;15.43;10.03;;;10.70;99.90;;;;;;5074724;28;20536;-86
2024/02/14 06:00:18;;;;;;;16.00;10.43;;;10.70;99.90;;;;;;5095123;28;20180;-84
2024/02/14 06:02:44;;;;;;;15.33;9.23;;;10.70;99.90;;;;;;5077923;28;20249;-84
2024/02/14 06:05:10;;;;;;;18.53;10.80;;;10.80;99.90;;;;;;5075060;28;20191;-85
2024/02/14 06:07:44;;;;;;;15.63;10.07;;;10.80;99.90;;;;;;5074358;28;20581;-86
2024/02/14 06:10:11;;;;;;;17.30;10.47;;;10.70;99.90;;;;;;5075076;28;20239;-83
2024/02/14 06:12:36;;;;;;;16.33;9.73;;;10.90;99.90;;;;;;5074542;28;20255;-86
2024/02/14 06:15:02;;;;;;;14.43;9.80;;;10.90;99.90;;;;;;5074230;28;20299;-84
2024/02/14 06:17:28;;;;;;;15.77;9.67;;;10.80;99.90;;;;;;5092111;28;20186;-84
2024/02/14 06:19:54;;;;;;;17.50;9.77;;;10.90;99.90;;;;;;5074651;28;20612;-83
2024/02/14 06:22:21;;;;;;;17.00;10.10;;;10.80;99.90;;;;;;5074850;28;20177;-83
2024/02/14 06:24:50;;;;;;;14.97;10.50;;;10.80;99.90;;;;;;5074565;28;20176;-86
2024/02/14 06:27:16;;;;;;;15.73;9.17;;;10.80;99.90;;;;;;5092825;28;20170;-85
2024/02/14 06:29:45;;;;;;;13.97;9.70;;;10.80;99.90;;;;;;5074916;28;20255;-84
2024/02/14 06:32:13;;;;;;;14.40;9.80;;;10.90;99.90;;;;;;5078301;28;20181;-83
2024/02/14 06:34:39;;;;;;;16.03;10.13;;;10.80;99.90;;;;;;5089461;28;20263;-84
2024/02/14 06:37:05;;;;;;;13.77;9.37;;;10.80;99.90;;;;;;5074896;28;20545;-85
2024/02/14 06:39:30;;;;;;;15.97;9.53;;;10.80;99.90;;;;;;5074607;28;20539;-84
2024/02/14 06:41:59;;;;;;;16.57;8.97;;;10.80;99.90;;;;;;5074259;28;20170;-84
2024/02/14 06:44:25;;;;;;;14.23;9.20;;;10.90;99.90;;;;;;5074251;28;20226;-91
2024/02/14 06:46:51;;;;;;;14.27;9.77;;;10.90;99.90;;;;;;5073984;28;20180;-84
2024/02/14 06:49:17;;;;;;;12.77;8.93;;;10.90;99.90;;;;;;5073838;28;20652;-83
2024/02/14 06:51:43;;;;;;;18.73;9.53;;;10.90;99.90;;;;;;5074752;28;20678;-86
2024/02/14 06:54:09;;;;;;;12.87;9.03;;;10.90;99.90;;;;;;5074109;28;20297;-88
2024/02/14 06:56:35;;;;;;;19.53;10.20;;;10.80;99.90;;;;;;5076240;28;20271;-84
2024/02/14 06:59:03;;;;;;;15.47;9.83;;;10.80;99.90;;;;;;5077090;28;20206;-84
2024/02/14 07:01:29;;;;;;;18.83;10.80;;;10.90;99.90;;;;;;5095529;28;20225;-85
2024/02/14 07:03:55;;;;;;;16.03;10.37;;;10.90;99.90;;;;;;5077431;28;20534;-85
2024/02/14 07:06:20;;;;;;;16.80;10.17;;;11.00;99.90;;;;;;5077329;28;20172;-84
2024/02/14 07:08:47;;;;;;;14.50;10.43;;;10.90;99.90;;;;;;5077768;28;20548;-91
2024/02/14 07:11:13;;;;;;;17.27;10.57;;;10.90;99.90;;;;;;5077298;28;20247;-85
2024/02/14 07:13:38;;;;;;;19.37;9.93;;;11.00;99.90;;;;;;5076683;28;20645;-84
2024/02/14 07:16:04;;;;;;;17.17;10.03;;;11.00;99.90;;;;;;5095592;28;20211;-85
2024/02/14 07:18:31;;;;;;;14.90;10.43;;;11.00;99.90;;;;;;5077110;28;20178;-84
2024/02/14 07:20:57;;;;;;;14.50;9.93;;;11.00;99.90;;;;;;5077409;28;20628;-85
2024/02/14 07:23:22;;;;;;;16.87;10.30;;;11.00;99.90;;;;;;5077471;28;20185;-85
2024/02/14 07:25:48;;;;;;;14.63;10.00;;;11.10;99.90;;;;;;5077533;28;20179;-84
2024/02/14 07:28:14;;;;;;;15.50;10.07;;;11.10;99.90;;;;;;5077274;28;20168;-85
2024/02/14 07:30:40;;;;;;;16.93;10.00;;;11.10;99.90;;;;;;5077269;28;20174;-85
2024/02/14 07:33:07;;;;;;;14.60;9.40;;;11.10;99.90;;;;;;5077047;28;20661;-83
2024/02/14 07:35:33;;;;;;;14.63;8.73;;;11.30;99.90;;;;;;5077380;28;20217;-84
2024/02/14 07:37:59;;;;;;;14.57;9.30;;;11.30;99.90;;;;;;5077018;28;20168;-85
2024/02/14 07:40:25;;;;;;;17.80;10.30;;;11.20;99.90;;;;;;5077138;28;20185;-84
2024/02/14 07:42:51;;;;;;;16.20;9.83;;;11.20;99.90;;;;;;5076954;28;20269;-84
2024/02/14 07:45:16;;;;;;;15.77;9.83;;;11.20;99.90;;;;;;5076775;28;20264;-84
2024/02/14 07:47:42;;;;;;;17.00;9.53;;;11.20;99.90;;;;;;5077018;28;20656;-84
2024/02/14 07:50:08;;;;;;;15.43;9.60;;;11.20;99.90;;;;;;5077116;28;20170;-84
2024/02/14 07:52:34;;;;;;;18.47;9.40;;;11.10;99.90;;;;;;5079291;28;20191;-85
2024/02/14 07:54:59;;;;;;;20.20;10.10;;;11.20;99.90;;;;;;5091855;28;20622;-83
2024/02/14 07:57:25;;;;;;;17.07;9.73;;;11.30;99.90;;;;;;5076308;28;20184;-85
2024/02/14 07:59:51;;;;;;;14.17;9.57;;;11.40;99.90;;;;;;5076778;28;20280;-84
2024/02/14 08:02:19;;;;;;;15.37;9.93;;;11.30;99.90;;;;;;5094734;28;20226;-84
2024/02/14 08:04:44;;;;;;;19.93;9.97;;;11.40;99.90;;;;;;5076630;28;20645;-85
2024/02/14 08:07:10;;;;;;;17.27;9.40;;;11.40;99.90;;;;;;5076631;28;20269;-84
2024/02/14 08:09:36;;;;;;;15.63;9.70;;;11.40;99.90;;;;;;5076412;28;20290;-84
2024/02/14 08:12:02;;;;;;;15.00;9.70;;;11.40;99.90;;;;;;5076726;28;20178;-85
2024/02/14 08:14:28;;;;;;;15.13;10.07;;;11.40;99.90;;;;;;5078570;28;20638;-85
2024/02/14 08:16:53;;;;;;;14.30;9.90;;;11.50;99.90;;;;;;5076967;28;20174;-84
2024/02/14 08:19:19;;;;;;;15.00;10.53;;;11.40;99.90;;;;;;5079879;28;20257;-84
2024/02/14 08:21:45;;;;;;;15.97;9.37;;;11.50;99.90;;;;;;5077298;28;20199;-83
2024/02/14 08:24:11;;;;;;;18.30;10.60;;;11.40;99.90;;;;;;5076467;28;20262;-84
2024/02/14 08:26:36;;;;;;;16.30;9.80;;;11.50;99.90;;;;;;5076281;28;20346;-85
2024/02/14 08:29:03;;;;;;;16.57;10.43;;;11.50;99.90;;;;;;5076495;28;20187;-86
2024/02/14 08:31:29;;;;;;;21.73;10.70;;;11.40;99.90;;;;;;5076878;28;20638;-85
2024/02/14 08:33:55;;;;;;;12.33;9.63;;;11.50;99.90;;;;;;5076535;28;20188;-83
2024/02/14 08:36:20;;;;;;;13.87;9.57;;;11.60;99.90;;;;;;5077638;28;20175;-87
2024/02/14 08:38:46;;;;;;;14.80;9.67;;;11.50;99.90;;;;;;5078220;28;20257;-85
2024/02/14 08:41:12;;;;;;;16.73;10.40;;;11.60;99.90;;;;;;5075972;28;20179;-84
2024/02/14 08:43:38;;;;;;;19.93;10.57;;;11.60;99.90;;;;;;5075990;28;20180;-84
2024/02/14 08:46:09;;;;;;;15.73;9.70;;;11.70;99.90;;;;;;5075977;28;20188;-85
2024/02/14 08:48:35;;;;;;;14.70;9.60;;;11.60;99.90;;;;;;5076120;28;20279;-85
2024/02/14 08:51:01;;;;;;;15.27;9.40;;;11.60;99.90;;;;;;5075477;28;20261;-85
2024/02/14 08:53:27;;;;;;;16.47;10.43;;;11.60;99.90;;;;;;5075711;28;20181;-84
2024/02/14 08:55:52;;;;;;;15.47;9.17;;;11.50;99.90;;;;;;5075720;28;20708;-86
2024/02/14 08:58:18;;;;;;;13.27;9.13;;;11.60;99.90;;;;;;5075506;28;20279;-85
2024/02/14 09:00:43;;;;;;;15.97;9.60;;;11.60;99.90;;;;;;5075605;28;20666;-85
2024/02/14 09:03:09;;;;;;;15.47;9.97;;;11.70;99.90;;;;;;5076943;28;20508;-84
2024/02/14 09:05:35;;;;;;;17.53;10.50;;;11.70;99.90;;;;;;5097781;28;20172;-84
2024/02/14 09:08:01;;;;;;;14.37;10.73;;;11.70;99.90;;;;;;5079610;28;20245;-85
2024/02/14 09:10:27;;;;;;;14.83;10.43;;;11.80;99.90;;;;;;5089968;28;20565;-84
2024/02/14 09:12:53;;;;;;;13.20;9.70;;;11.80;99.90;;;;;;5107074;28;20178;-83
2024/02/14 09:15:19;;;;;;;16.80;10.67;;;11.80;99.90;;;;;;5086497;28;20215;-83
2024/02/14 09:17:45;;;;;;;17.33;10.37;;;11.80;99.90;;;;;;5077535;28;20526;-85
2024/02/14 09:20:13;;;;;;;14.87;10.37;;;11.80;99.90;;;;;;5074737;28;20183;-84
2024/02/14 09:22:41;;;;;;;14.77;11.17;;;11.80;99.90;;;;;;5093512;28;20262;-84
2024/02/14 09:25:09;;;;;;;14.53;11.03;;;11.90;99.90;;;;;;5075048;28;20176;-84
2024/02/14 09:27:35;;;;;;;17.27;11.20;;;11.90;99.90;;;;;;5075294;28;20178;-84
2024/02/14 09:30:03;;;;;;;14.57;10.50;;;12.00;99.90;;;;;;5075048;28;20175;-84
2024/02/14 09:32:30;;;;;;;16.80;10.37;;;11.90;99.90;;;;;;5074828;28;20179;-84
2024/02/14 09:34:57;;;;;;;15.90;10.97;;;11.90;99.90;;;;;;5074603;28;20209;-84
2024/02/14 09:37:23;;;;;;;14.20;10.20;;;11.90;99.90;;;;;;5074382;28;20179;-84
2024/02/14 09:39:49;;;;;;;15.40;10.53;;;11.90;99.90;;;;;;5074584;28;20218;-86
2024/02/14 09:42:19;;;;;;;16.57;10.27;;;11.80;99.90;;;;;;5074702;28;20178;-85
2024/02/14 09:44:46;;;;;;;17.00;10.43;;;11.90;99.90;;;;;;5074911;28;20189;-84
2024/02/14 09:47:13;;;;;;;14.07;11.23;;;11.80;99.90;;;;;;5074916;28;20241;-84
2024/02/14 09:49:39;;;;;;;16.33;10.37;;;11.90;99.90;;;;;;5074907;28;20185;-84
2024/02/14 09:52:07;;;;;;;12.30;10.60;;;11.80;99.90;;;;;;5074877;28;20206;-86
2024/02/14 09:54:38;;;;;;;13.27;10.33;;;11.90;99.90;;;;;;5074559;28;20230;-84
2024/02/14 09:57:05;;;;;;;13.57;10.67;;;11.90;99.90;;;;;;5074756;28;20172;-84
2024/02/14 09:59:32;;;;;;;16.13;11.00;;;12.00;99.90;;;;;;5074453;28;20198;-84
2024/02/14 10:01:58;;;;;;;16.97;10.60;;;11.90;99.90;;;;;;5074611;28;20274;-84
2024/02/14 10:04:24;;;;;;;15.13;10.37;;;12.00;99.90;;;;;;5074679;28;20221;-84
2024/02/14 10:06:51;;;;;;;14.00;10.43;;;12.00;99.90;;;;;;5075116;28;20270;-84
2024/02/14 10:09:23;;;;;;;15.37;11.10;;;12.00;99.90;;;;;;5074268;28;20182;-84
2024/02/14 10:11:49;;;;;;;13.87;9.97;;;12.00;99.90;;;;;;5074825;28;20175;-87
2024/02/14 10:14:15;;;;;;;13.47;10.23;;;12.00;99.90;;;;;;5093101;28;20203;-85
2024/02/14 10:16:41;;;;;;;12.60;10.03;;;12.10;99.90;;;;;;5074794;28;20233;-86
2024/02/14 10:19:17;;;;;;;11.83;10.00;;;12.00;99.90;;;;;;5074675;28;20182;-84
2024/02/14 10:21:42;;;;;;;13.93;10.13;;;12.00;99.90;;;;;;5074960;28;20195;-84
2024/02/14 10:24:10;;;;;;;14.53;10.30;;;12.00;99.90;;;;;;5075146;28;20174;-85
2024/02/14 10:26:37;;;;;;;15.87;10.70;;;11.90;99.90;;;;;;5077467;28;20173;-84
2024/02/14 10:29:03;;;;;;;13.23;10.27;;;11.90;99.90;;;;;;5074721;28;20174;-85
2024/02/14 10:31:28;;;;;;;14.07;11.03;;;11.90;99.90;;;;;;5078059;28;20254;-88
2024/02/14 10:33:58;;;;;;;13.17;10.53;;;12.00;99.90;;;;;;5078426;28;20189;-84
2024/02/14 10:36:24;;;;;;;14.07;9.80;;;12.00;99.90;;;;;;5078586;28;20185;-84
2024/02/14 10:38:50;;;;;;;12.07;9.43;;;11.90;99.90;;;;;;5077947;28;20608;-85
2024/02/14 10:41:17;;;;;;;14.70;9.87;;;12.00;99.90;;;;;;5078304;28;20181;-84
2024/02/14 10:43:44;;;;;;;12.53;9.50;;;12.00;99.90;;;;;;5078011;28;20293;-85
2024/02/14 10:46:21;;;;;;;12.43;9.43;;;12.00;99.90;;;;;;5078668;28;20179;-85
2024/02/14 10:48:47;;;;;;;15.13;10.10;;;12.00;99.90;;;;;;5078167;28;20325;-87
2024/02/14 10:51:15;;;;;;;11.87;9.23;;;12.00;99.90;;;;;;5078433;28;20269;-84
2024/02/14 10:53:45;;;;;;;14.87;9.07;;;12.10;99.90;;;;;;5077764;28;20167;-84
2024/02/14 10:56:16;;;;;;;9.93;8.43;;;12.00;99.90;;;;;;5078700;28;20231;-85
2024/02/14 10:58:44;;;;;;;9.93;8.67;;;12.00;99.90;;;;;;5078380;28;20195;-86
2024/02/14 11:01:11;;;;;;;10.77;8.70;;;12.10;99.90;;;;;;5099411;28;20191;-84
2024/02/14 11:03:37;;;;;;;9.67;7.77;;;12.00;99.90;;;;;;5102088;28;20183;-84
2024/02/14 11:06:04;;;;;;;9.97;7.60;;;12.00;99.90;;;;;;5101293;28;20165;-82
2024/02/14 11:08:33;;;;;;;9.67;7.27;;;12.00;99.90;;;;;;5098259;28;20213;-84
2024/02/14 11:11:00;;;;;;;9.27;7.13;;;12.10;99.90;;;;;;5084486;28;20213;-85
2024/02/14 11:13:33;;;;;;;9.43;7.17;;;12.10;99.90;;;;;;5062051;28;20249;-85
2024/02/14 11:16:04;;;;;;;8.93;6.63;;;12.10;99.90;;;;;;5077990;28;20241;-84
2024/02/14 11:18:30;;;;;;;9.13;6.67;;;12.20;99.90;;;;;;5077822;28;20627;-85
2024/02/14 11:20:59;;;;;;;11.80;7.40;;;12.30;99.90;;;;;;5079092;28;20585;-85
2024/02/14 11:23:26;;;;;;;9.97;7.60;;;12.20;99.90;;;;;;5079163;28;20238;-85
2024/02/14 11:26:01;;;;;;;11.33;6.90;;;12.30;99.90;;;;;;5079500;28;20186;-89
2024/02/14 11:28:28;;;;;;;10.27;6.53;;;12.20;99.90;;;;;;5096684;28;20167;-85
2024/02/14 11:31:00;;;;;;;12.37;7.43;;;12.30;99.90;;;;;;5077672;28;20182;-87
2024/02/14 11:33:27;;;;;;;9.17;5.87;;;12.30;99.90;;;;;;5079541;28;20204;-91
2024/02/14 11:35:55;;;;;;;8.80;6.40;;;12.20;99.90;;;;;;5080675;28;20208;-85
2024/02/14 11:38:22;;;;;;;9.27;6.87;;;12.30;99.90;;;;;;5080297;28;20172;-85
2024/02/14 11:40:49;;;;;;;9.40;6.17;;;12.30;99.90;;;;;;5080287;28;20270;-90
2024/02/14 11:43:22;;;;;;;9.77;6.33;;;12.30;99.90;;;;;;5078080;28;20336;-88
2024/02/14 11:45:52;;;;;;;10.50;6.07;;;12.30;99.90;;;;;;5077356;28;20240;-92
2024/02/14 11:48:20;;;;;;;8.53;6.10;;;12.30;99.90;;;;;;5078263;28;20172;-84
2024/02/14 11:50:46;;;;;;;8.33;5.50;;;12.30;99.90;;;;;;5078777;28;20205;-86
2024/02/14 11:53:17;;;;;;;8.77;6.30;;;12.40;99.90;;;;;;5079574;28;20175;-85
2024/02/14 11:55:43;;;;;;;7.67;5.47;;;12.40;99.90;;;;;;5080648;28;20212;-86
2024/02/14 11:58:10;;;;;;;8.77;5.50;;;12.50;99.90;;;;;;5078574;28;20198;-84
2024/02/14 12:00:57;;;;;;;8.40;5.50;;;12.40;99.90;;;;;;5077742;28;20253;-86
2024/02/14 12:03:24;;;;;;;7.87;5.20;;;12.50;99.90;;;;;;5077800;28;20228;-85
2024/02/14 12:05:52;;;;;;;7.40;5.90;;;12.60;99.90;;;;;;5094542;28;20643;-84
2024/02/14 12:08:18;;;;;;;6.43;5.43;;;12.70;99.90;;;;;;5076785;28;20557;-84
2024/02/14 12:10:49;;;;;;;11.47;7.33;;;12.60;99.90;;;;;;5094562;28;20217;-84
2024/02/14 12:13:17;;;;;;;9.90;5.43;;;12.70;99.90;;;;;;5077708;28;20172;-83
2024/02/14 12:15:48;;;;;;;6.70;5.30;;;12.70;99.90;;;;;;5076824;28;20267;-86
2024/02/14 12:18:14;;;;;;;8.07;5.60;;;12.70;99.90;;;;;;5076815;28;20185;-85
2024/02/14 12:20:41;;;;;;;7.20;5.40;;;12.80;99.90;;;;;;5076418;28;20184;-84
2024/02/14 12:23:07;;;;;;;9.33;5.63;;;12.70;99.90;;;;;;5076423;28;20254;-85
2024/02/14 12:25:33;;;;;;;7.33;5.60;;;12.80;99.90;;;;;;5076173;28;20287;-86
2024/02/14 12:28:00;;;;;;;8.33;5.37;;;12.80;99.90;;;;;;5075982;28;20262;-85
2024/02/14 12:30:57;;;;;;;8.07;6.03;;;12.90;99.90;;;;;;5076074;28;20210;-86
2024/02/14 12:33:24;;;;;;;9.70;6.13;;;12.90;99.90;;;;;;5076805;28;20168;-85
2024/02/14 12:35:52;;;;;;;9.20;5.73;;;13.00;99.90;;;;;;5077373;28;20578;-85